createdAt,value
2019-02-20T00:01:57.091Z,17.40
2019-02-20T00:06:48.163Z,15.67
2019-02-20T00:11:33.391Z,11.37
2019-02-20T00:16:20.348Z,14.73
2019-02-20T00:21:05.454Z,15.33
2019-02-20T00:25:50.888Z,13.97
2019-02-20T00:30:36.483Z,15.90
2019-02-20T00:35:21.852Z,14.10
2019-02-20T00:40:06.907Z,14.27
2019-02-20T00:45:00.614Z,15.87
2019-02-20T00:49:49.392Z,17.87
2019-02-20T00:54:34.336Z,16.77
2019-02-20T00:59:22.072Z,17.77
2019-02-20T01:04:07.695Z,15.87
2019-02-20T01:08:52.317Z,17.47
2019-02-20T01:13:39.746Z,16.83
2019-02-20T01:18:24.744Z,15.20
2019-02-20T01:23:09.526Z,15.73
2019-02-20T01:27:54.408Z,18.00
2019-02-20T01:32:39.661Z,17.80
2019-02-20T01:37:24.836Z,16.90
2019-02-20T01:42:14.985Z,19.50
2019-02-20T01:47:01.548Z,16.57
2019-02-20T01:51:46.816Z,15.90
2019-02-20T01:56:31.814Z,21.70
2019-02-20T02:01:17.155Z,16.63
2019-02-20T02:06:02.370Z,17.33
2019-02-20T02:10:47.392Z,20.60
2019-02-20T02:15:33.578Z,18.30
2019-02-20T02:20:18.324Z,19.50
2019-02-20T02:25:03.398Z,18.90
2019-02-20T02:29:49.218Z,18.97
2019-02-20T02:34:34.054Z,17.33
2019-02-20T02:39:19.000Z,21.07
2019-02-20T02:44:03.952Z,18.27
2019-02-20T02:48:48.919Z,18.70
2019-02-20T02:53:33.731Z,17.40
2019-02-20T02:58:18.614Z,18.27
2019-02-20T03:03:03.606Z,20.17
2019-02-20T03:07:48.371Z,17.63
2019-02-20T03:12:33.406Z,17.77
2019-02-20T03:17:18.180Z,20.63
2019-02-20T03:22:03.340Z,17.77
2019-02-20T03:26:48.179Z,21.43
2019-02-20T03:31:33.653Z,17.23
2019-02-20T03:36:18.721Z,22.33
2019-02-20T03:41:05.561Z,21.90
2019-02-20T03:45:50.694Z,19.97
2019-02-20T03:50:35.624Z,19.00
2019-02-20T03:55:20.274Z,21.60
2019-02-20T04:00:05.547Z,17.80
2019-02-20T04:04:50.724Z,17.33
2019-02-20T04:09:35.644Z,18.30
2019-02-20T04:14:20.557Z,20.83
2019-02-20T04:19:07.000Z,21.20
2019-02-20T04:24:01.936Z,19.57
2019-02-20T04:28:41.010Z,20.40
2019-02-20T04:33:26.206Z,22.73
2019-02-20T04:38:13.304Z,18.00
2019-02-20T04:43:01.098Z,17.47
2019-02-20T04:47:48.482Z,20.70
2019-02-20T04:52:33.437Z,23.10
2019-02-20T04:57:18.259Z,19.67
2019-02-20T05:02:03.719Z,20.43
2019-02-20T05:06:48.275Z,19.23
2019-02-20T05:11:32.885Z,21.63
2019-02-20T05:16:20.504Z,22.40
2019-02-20T05:21:05.031Z,21.70
2019-02-20T05:25:49.920Z,18.73
2019-02-20T05:30:34.774Z,19.57
2019-02-20T05:35:24.915Z,22.33
2019-02-20T05:40:10.770Z,22.30
2019-02-20T05:44:55.583Z,20.03
2019-02-20T05:49:40.068Z,22.73
2019-02-20T05:54:33.815Z,19.50
2019-02-20T05:59:10.800Z,20.37
2019-02-20T06:03:55.521Z,21.20
2019-02-20T06:08:40.174Z,22.80
2019-02-20T06:13:24.831Z,18.10
2019-02-20T06:18:09.479Z,21.00
2019-02-20T06:22:53.985Z,18.30
2019-02-20T06:27:38.468Z,20.27
2019-02-20T06:32:24.176Z,22.20
2019-02-20T06:37:08.721Z,23.20
2019-02-20T06:41:53.236Z,21.37
2019-02-20T06:46:37.720Z,18.80
2019-02-20T06:51:22.403Z,19.07
2019-02-20T06:56:07.037Z,21.33
2019-02-20T07:00:51.597Z,20.17
2019-02-20T07:05:38.319Z,19.43
2019-02-20T07:10:58.663Z,21.70
2019-02-20T07:16:30.308Z,19.63
2019-02-20T07:21:59.121Z,19.47
2019-02-20T07:27:23.750Z,17.03
2019-02-20T07:32:08.343Z,19.17
2019-02-20T07:36:53.019Z,15.43
2019-02-20T07:41:37.512Z,17.97
2019-02-20T07:46:22.058Z,20.00
2019-02-20T07:51:06.595Z,19.60
2019-02-20T07:55:51.623Z,18.43
2019-02-20T08:00:36.324Z,17.73
2019-02-20T08:05:20.902Z,20.67
2019-02-20T08:10:06.739Z,21.60
2019-02-20T08:14:51.301Z,15.17
2019-02-20T08:19:35.826Z,20.00
2019-02-20T08:24:20.489Z,19.27
2019-02-20T08:29:05.061Z,18.27
2019-02-20T08:33:49.572Z,18.50
2019-02-20T08:38:34.419Z,18.80
2019-02-20T08:43:19.044Z,16.77
2019-02-20T08:48:03.625Z,19.23
2019-02-20T08:52:48.141Z,18.40
2019-02-20T08:57:33.060Z,17.83
2019-02-20T09:02:17.577Z,22.17
2019-02-20T09:07:02.108Z,20.07
2019-02-20T09:11:46.669Z,19.70
2019-02-20T09:16:34.504Z,17.07
2019-02-20T09:21:19.821Z,19.40
2019-02-20T09:26:04.613Z,19.50
2019-02-20T09:30:49.172Z,18.27
2019-02-20T09:35:33.674Z,18.40
2019-02-20T09:40:18.357Z,18.70
2019-02-20T09:45:03.184Z,20.03
2019-02-20T09:49:47.715Z,17.97
2019-02-20T09:54:32.515Z,20.60
2019-02-20T09:59:17.123Z,16.90
2019-02-20T10:04:01.925Z,20.60
2019-02-20T10:08:46.422Z,14.90
2019-02-20T10:13:30.997Z,16.20
2019-02-20T10:18:15.573Z,19.57
2019-02-20T10:23:00.384Z,20.77
2019-02-20T10:27:45.008Z,19.23
2019-02-20T10:32:29.523Z,19.57
2019-02-20T10:37:14.021Z,22.53
2019-02-20T10:41:58.611Z,20.23
2019-02-20T10:46:43.190Z,19.03
2019-02-20T10:51:27.799Z,18.40
2019-02-20T10:56:12.427Z,22.10
2019-02-20T11:00:56.969Z,19.00
2019-02-20T11:05:41.546Z,18.40
2019-02-20T11:10:26.025Z,18.83
2019-02-20T11:15:10.692Z,16.33
2019-02-20T11:19:55.329Z,17.03
2019-02-20T11:24:39.912Z,17.33
2019-02-20T11:29:24.432Z,18.07
2019-02-20T11:34:09.285Z,15.60
2019-02-20T11:38:53.973Z,15.40
2019-02-20T11:43:38.562Z,18.03
2019-02-20T11:48:23.109Z,15.67
2019-02-20T11:53:07.622Z,15.73
2019-02-20T11:58:00.341Z,15.13
2019-02-20T12:02:38.415Z,15.67
2019-02-20T12:07:23.397Z,10.00
2019-02-20T12:12:09.420Z,10.13
2019-02-20T12:16:54.109Z,12.80
2019-02-20T12:21:38.933Z,11.13
2019-02-20T12:26:24.121Z,12.83
2019-02-20T12:31:08.571Z,7.53
2019-02-20T12:35:53.320Z,10.83
2019-02-20T12:40:37.913Z,9.93
2019-02-20T12:45:22.574Z,11.57
2019-02-20T12:50:07.431Z,9.50
2019-02-20T12:54:52.111Z,8.60
2019-02-20T12:59:36.860Z,10.70
2019-02-20T13:04:21.577Z,10.80
2019-02-20T13:09:08.698Z,7.43
2019-02-20T13:13:53.256Z,6.40
2019-02-20T13:18:37.906Z,8.00
2019-02-20T13:23:22.380Z,10.07
2019-02-20T13:28:06.925Z,7.03
2019-02-20T13:32:51.671Z,8.70
2019-02-20T13:37:36.349Z,9.90
2019-02-20T13:42:20.986Z,8.47
2019-02-20T13:47:05.684Z,8.43
2019-02-20T13:51:50.265Z,7.00
2019-02-20T13:56:34.949Z,11.37
2019-02-20T14:01:19.495Z,8.97
2019-02-20T14:06:04.138Z,9.07
2019-02-20T14:10:48.663Z,12.30
2019-02-20T14:15:33.215Z,10.87
2019-02-20T14:20:18.135Z,13.17
2019-02-20T14:25:02.823Z,11.03
2019-02-20T14:29:47.451Z,9.03
2019-02-20T14:34:32.002Z,9.03
2019-02-20T14:39:16.547Z,12.20
2019-02-20T14:44:01.146Z,9.77
2019-02-20T14:48:47.336Z,8.37
2019-02-20T14:53:32.042Z,9.83
2019-02-20T14:58:16.873Z,9.63
2019-02-20T15:03:01.625Z,9.77
2019-02-20T15:07:46.139Z,5.20
2019-02-20T15:12:30.877Z,9.07
2019-02-20T15:17:15.483Z,5.97
2019-02-20T15:22:00.073Z,7.20
2019-02-20T15:26:44.716Z,4.63
2019-02-20T15:31:33.654Z,4.70
2019-02-20T15:36:15.530Z,8.50
2019-02-20T15:41:00.422Z,4.67
2019-02-20T15:45:44.989Z,7.93
2019-02-20T15:50:29.578Z,7.43
2019-02-20T15:55:14.513Z,8.20
2019-02-20T15:59:59.162Z,10.80
2019-02-20T16:04:43.745Z,6.30
2019-02-20T16:09:28.309Z,8.03
2019-02-20T16:14:12.849Z,9.30
2019-02-20T16:18:57.501Z,6.50
2019-02-20T16:23:42.147Z,5.80
2019-02-20T16:28:33.549Z,8.10
2019-02-20T16:33:12.942Z,6.33
2019-02-20T16:37:58.420Z,7.57
2019-02-20T16:42:43.018Z,8.33
2019-02-20T16:47:27.594Z,9.27
2019-02-20T16:52:12.346Z,11.00
2019-02-20T16:56:56.967Z,9.37
2019-02-20T17:01:41.645Z,11.53
2019-02-20T17:06:26.253Z,11.23
2019-02-20T17:11:11.095Z,10.63
2019-02-20T17:15:55.849Z,10.00
2019-02-20T17:20:40.686Z,12.20
2019-02-20T17:25:25.374Z,11.80
2019-02-20T17:30:11.464Z,14.83
2019-02-20T17:34:56.258Z,7.50
2019-02-20T17:39:41.185Z,10.10
2019-02-20T17:44:25.780Z,11.97
2019-02-20T17:49:10.324Z,12.00
2019-02-20T17:53:54.941Z,7.67
2019-02-20T17:58:39.496Z,13.30
2019-02-20T18:03:24.090Z,11.50
2019-02-20T18:08:08.855Z,11.73
2019-02-20T18:12:53.539Z,11.43
2019-02-20T18:17:38.599Z,13.63
2019-02-20T18:22:23.169Z,15.97
2019-02-20T18:27:07.737Z,16.07
2019-02-20T18:31:52.730Z,14.20
2019-02-20T18:36:37.294Z,10.83
2019-02-20T18:41:22.044Z,11.37
2019-02-20T18:46:09.440Z,15.27
2019-02-20T18:50:54.105Z,12.97
2019-02-20T18:55:38.865Z,13.17
2019-02-20T19:00:23.709Z,13.97
2019-02-20T19:05:08.875Z,12.43
2019-02-20T19:09:53.691Z,17.70
2019-02-20T19:15:10.784Z,13.07
2019-02-20T19:20:12.105Z,16.10
2019-02-20T19:25:37.705Z,22.40
2019-02-20T19:31:05.071Z,14.77
2019-02-20T19:36:30.741Z,15.13
2019-02-20T19:42:11.295Z,15.43
2019-02-20T19:47:14.251Z,13.53
2019-02-20T19:52:29.345Z,13.17
2019-02-20T19:57:58.127Z,18.63
2019-02-20T20:03:28.125Z,18.47
2019-02-20T20:08:37.338Z,14.87
2019-02-20T20:14:04.383Z,15.80
2019-02-20T20:19:36.032Z,16.17
2019-02-20T20:24:53.431Z,15.87
2019-02-20T20:30:18.033Z,13.60
2019-02-20T20:35:27.276Z,16.83
2019-02-20T20:40:54.818Z,16.83
2019-02-20T20:45:55.687Z,18.87
2019-02-20T20:51:29.138Z,17.83
2019-02-20T20:57:00.431Z,14.50
2019-02-20T21:02:41.208Z,14.47
2019-02-20T21:07:38.215Z,16.43
2019-02-20T21:12:55.267Z,17.20
2019-02-20T21:18:16.754Z,17.33
2019-02-20T21:23:50.685Z,13.63
2019-02-20T21:29:13.385Z,17.90
2019-02-20T21:34:35.113Z,15.80
2019-02-20T21:39:53.004Z,12.93
2019-02-20T21:45:13.729Z,16.50
2019-02-20T21:50:50.306Z,16.23
2019-02-20T21:56:08.929Z,17.05
2019-02-20T22:01:26.457Z,15.73
2019-02-20T22:06:55.208Z,13.87
2019-02-20T22:12:14.251Z,15.13
2019-02-20T22:17:38.743Z,15.97
2019-02-20T22:23:07.628Z,21.57
2019-02-20T22:28:31.281Z,19.50
2019-02-20T22:33:28.221Z,17.87
2019-02-20T22:38:50.955Z,13.80
2019-02-20T22:44:24.570Z,17.93
2019-02-20T22:49:36.817Z,18.63
2019-02-20T22:54:48.553Z,15.00
2019-02-20T23:00:34.094Z,16.07
2019-02-20T23:05:56.610Z,19.73
2019-02-20T23:11:26.981Z,20.00
2019-02-20T23:16:11.690Z,16.20
2019-02-20T23:20:56.325Z,20.10
2019-02-20T23:25:40.898Z,18.47
2019-02-20T23:30:25.542Z,15.43
2019-02-20T23:35:10.196Z,18.90
2019-02-20T23:39:54.851Z,16.07
2019-02-20T23:44:39.524Z,16.53
2019-02-20T23:49:24.253Z,20.63
2019-02-20T23:54:08.777Z,21.27
2019-02-20T23:58:53.376Z,19.10
